createdAt,value
2023-04-20T00:00:43.343Z,10.54
2023-04-20T00:01:46.475Z,10.72
2023-04-20T00:02:48.492Z,10.61
2023-04-20T00:03:50.704Z,10.65
2023-04-20T00:04:55.877Z,10.68
2023-04-20T00:05:58.487Z,10.42
2023-04-20T00:07:00.604Z,10.49
2023-04-20T00:08:03.096Z,10.49
2023-04-20T00:09:05.102Z,10.48
2023-04-20T00:10:08.684Z,10.58
2023-04-20T00:11:11.771Z,10.50
2023-04-20T00:12:13.841Z,10.63
2023-04-20T00:13:15.698Z,10.70
2023-04-20T00:14:18.220Z,10.59
2023-04-20T00:15:20.878Z,10.52
2023-04-20T00:16:25.891Z,10.52
2023-04-20T00:17:28.244Z,10.56
2023-04-20T00:18:30.203Z,10.61
2023-04-20T00:19:32.206Z,10.60
2023-04-20T00:20:34.436Z,10.62
2023-04-20T00:21:38.058Z,10.64
2023-04-20T00:22:40.511Z,10.60
2023-04-20T00:23:42.551Z,10.65
2023-04-20T00:24:44.520Z,10.54
2023-04-20T00:25:46.623Z,10.57
2023-04-20T00:26:48.838Z,10.49
2023-04-20T00:27:50.889Z,10.64
2023-04-20T00:28:53.985Z,10.60
2023-04-20T00:29:56.167Z,10.46
2023-04-20T00:30:58.188Z,10.50
2023-04-20T00:32:02.294Z,10.55
2023-04-20T00:33:04.268Z,10.27
2023-04-20T00:34:06.385Z,10.27
2023-04-20T00:35:09.284Z,10.33
2023-04-20T00:36:12.033Z,10.27
2023-04-20T00:37:14.332Z,10.40
2023-04-20T00:38:16.606Z,10.45
2023-04-20T00:39:18.740Z,10.54
2023-04-20T00:40:20.964Z,10.43
2023-04-20T00:41:23.428Z,10.50
2023-04-20T00:42:25.313Z,10.56
2023-04-20T00:43:27.297Z,10.46
2023-04-20T00:44:29.166Z,10.55
2023-04-20T00:45:31.025Z,10.53
2023-04-20T00:46:33.821Z,10.47
2023-04-20T00:47:35.895Z,10.33
2023-04-20T00:48:37.947Z,10.36
2023-04-20T00:49:41.705Z,10.32
2023-04-20T00:50:44.315Z,10.32
2023-04-20T00:51:46.310Z,10.21
2023-04-20T00:52:48.319Z,10.09
2023-04-20T00:53:50.444Z,10.23
2023-04-20T00:54:52.730Z,10.28
2023-04-20T00:55:55.103Z,10.31
2023-04-20T00:56:58.912Z,10.24
2023-04-20T00:58:01.408Z,10.15
2023-04-20T00:59:03.341Z,10.28
2023-04-20T01:00:07.323Z,10.19
2023-04-20T01:01:14.670Z,10.28
2023-04-20T01:02:18.074Z,10.14
2023-04-20T01:03:20.542Z,10.17
2023-04-20T01:04:23.853Z,10.15
2023-04-20T01:05:27.843Z,10.12
2023-04-20T01:06:30.412Z,10.27
2023-04-20T01:07:32.371Z,10.13
2023-04-20T01:08:34.233Z,10.14
2023-04-20T01:09:39.321Z,10.11
2023-04-20T01:10:41.585Z,10.11
2023-04-20T01:11:45.449Z,10.17
2023-04-20T01:12:47.454Z,10.17
2023-04-20T01:13:49.399Z,10.17
2023-04-20T01:14:51.615Z,10.19
2023-04-20T01:15:56.429Z,10.28
2023-04-20T01:16:59.377Z,10.26
2023-04-20T01:18:01.467Z,10.19
2023-04-20T01:19:03.587Z,10.28
2023-04-20T01:20:11.195Z,10.12
2023-04-20T01:21:16.563Z,10.12
2023-04-20T01:23:34.081Z,10.15
2023-04-20T01:24:36.016Z,10.16
2023-04-20T01:25:38.361Z,10.12
2023-04-20T01:26:40.581Z,10.15
2023-04-20T01:27:43.166Z,10.13
2023-04-20T01:28:45.643Z,10.15
2023-04-20T01:29:47.673Z,10.13
2023-04-20T01:30:49.662Z,10.16
2023-04-20T01:31:51.608Z,10.11
2023-04-20T01:32:53.722Z,10.15
2023-04-20T01:33:55.821Z,10.19
2023-04-20T01:34:58.484Z,10.26
2023-04-20T01:36:00.455Z,10.26
2023-04-20T01:37:02.963Z,10.24
2023-04-20T01:38:05.838Z,10.17
2023-04-20T01:39:10.443Z,10.07
2023-04-20T01:40:14.220Z,10.11
2023-04-20T01:41:18.334Z,10.08
2023-04-20T01:42:21.604Z,10.17
2023-04-20T01:43:24.124Z,10.16
2023-04-20T01:44:26.279Z,10.12
2023-04-20T01:45:28.151Z,10.21
2023-04-20T01:46:30.215Z,10.03
2023-04-20T01:47:33.293Z,10.06
2023-04-20T01:48:35.254Z,10.13
2023-04-20T01:49:37.243Z,10.26
2023-04-20T01:50:39.321Z,10.18
2023-04-20T01:51:41.188Z,10.16
2023-04-20T01:52:43.048Z,10.30
2023-04-20T01:53:44.930Z,10.14
2023-04-20T01:54:47.002Z,10.18
2023-04-20T01:55:49.585Z,10.11
2023-04-20T01:56:51.856Z,10.21
2023-04-20T01:57:53.824Z,10.30
2023-04-20T01:58:55.785Z,10.11
2023-04-20T01:59:57.693Z,10.19
2023-04-20T02:01:02.625Z,10.30
2023-04-20T02:02:05.776Z,10.26
2023-04-20T02:03:07.967Z,10.17
2023-04-20T02:04:10.175Z,10.13
2023-04-20T02:05:12.322Z,10.15
2023-04-20T02:06:14.423Z,10.16
2023-04-20T02:07:17.619Z,10.20
2023-04-20T02:08:20.090Z,10.20
2023-04-20T02:09:21.950Z,10.20
2023-04-20T02:10:24.161Z,10.15
2023-04-20T02:11:26.119Z,10.19
2023-04-20T02:12:28.098Z,10.19
2023-04-20T02:13:29.953Z,10.19
2023-04-20T02:14:31.812Z,10.13
2023-04-20T02:15:34.092Z,10.16
2023-04-20T02:16:36.381Z,10.18
2023-04-20T02:17:38.394Z,10.25
2023-04-20T02:18:41.661Z,10.09
2023-04-20T02:19:43.805Z,10.10
2023-04-20T02:20:46.540Z,10.11
2023-04-20T02:21:48.554Z,10.01
2023-04-20T02:22:50.489Z,10.04
2023-04-20T02:23:52.704Z,10.08
2023-04-20T02:24:55.579Z,10.16
2023-04-20T02:25:57.556Z,10.18
2023-04-20T02:26:59.702Z,10.01
2023-04-20T02:28:01.704Z,10.05
2023-04-20T02:29:04.755Z,10.05
2023-04-20T02:30:07.640Z,10.05
2023-04-20T02:31:09.941Z,10.10
2023-04-20T02:32:11.915Z,10.14
2023-04-20T02:33:14.119Z,10.13
2023-04-20T02:34:16.182Z,10.10
2023-04-20T02:35:18.779Z,10.13
2023-04-20T02:36:21.052Z,10.05
2023-04-20T02:37:22.918Z,10.07
2023-04-20T02:38:24.792Z,10.16
2023-04-20T02:39:26.718Z,10.04
2023-04-20T02:40:28.705Z,10.02
2023-04-20T02:41:30.584Z,9.98
2023-04-20T02:42:32.490Z,9.93
2023-04-20T02:43:34.476Z,10.00
2023-04-20T02:44:36.478Z,10.04
2023-04-20T02:45:38.348Z,10.05
2023-04-20T02:46:41.595Z,10.05
2023-04-20T02:47:44.880Z,10.01
2023-04-20T02:48:46.920Z,10.09
2023-04-20T02:49:48.978Z,10.12
2023-04-20T02:50:54.669Z,10.20
2023-04-20T02:51:56.743Z,10.14
2023-04-20T02:52:58.624Z,10.11
2023-04-20T02:54:00.642Z,10.01
2023-04-20T02:55:02.924Z,9.96
2023-04-20T02:56:05.283Z,10.08
2023-04-20T02:57:07.403Z,10.03
2023-04-20T02:58:09.266Z,10.02
2023-04-20T02:59:11.145Z,10.03
2023-04-20T03:00:13.832Z,10.14
2023-04-20T03:01:15.895Z,10.01
2023-04-20T03:02:17.834Z,9.99
2023-04-20T03:03:20.440Z,10.07
2023-04-20T03:04:22.674Z,10.15
2023-04-20T03:05:24.763Z,10.18
2023-04-20T03:06:26.860Z,9.96
2023-04-20T03:07:28.743Z,10.05
2023-04-20T03:08:31.001Z,10.15
2023-04-20T03:09:32.921Z,10.23
2023-04-20T03:10:35.014Z,10.06
2023-04-20T03:11:36.957Z,10.16
2023-04-20T03:12:38.821Z,10.17
2023-04-20T03:13:40.850Z,10.20
2023-04-20T03:14:42.833Z,9.99
2023-04-20T03:15:44.699Z,10.15
2023-04-20T03:16:47.547Z,10.16
2023-04-20T03:17:49.673Z,10.24
2023-04-20T03:18:51.913Z,10.06
2023-04-20T03:19:53.778Z,10.13
2023-04-20T03:20:55.822Z,10.01
2023-04-20T03:21:57.718Z,10.13
2023-04-20T03:23:00.939Z,10.16
2023-04-20T03:24:04.871Z,10.13
2023-04-20T03:25:08.011Z,10.18
2023-04-20T03:26:10.339Z,10.04
2023-04-20T03:27:15.662Z,10.23
2023-04-20T03:28:17.657Z,10.06
2023-04-20T03:29:20.535Z,10.19
2023-04-20T03:30:23.023Z,10.07
2023-04-20T03:31:24.919Z,10.05
2023-04-20T03:32:27.983Z,10.09
2023-04-20T03:33:30.055Z,10.06
2023-04-20T03:34:31.922Z,10.14
2023-04-20T03:35:33.954Z,10.26
2023-04-20T03:36:36.059Z,10.21
2023-04-20T03:37:38.164Z,10.16
2023-04-20T03:38:40.310Z,10.16
2023-04-20T03:39:43.431Z,10.18
2023-04-20T03:40:45.488Z,10.18
2023-04-20T03:41:47.439Z,10.06
2023-04-20T03:42:49.293Z,10.03
2023-04-20T03:43:51.197Z,10.05
2023-04-20T03:44:53.184Z,10.03
2023-04-20T03:45:55.402Z,9.99
2023-04-20T03:46:58.515Z,10.04
2023-04-20T03:48:00.423Z,9.93
2023-04-20T03:49:03.868Z,10.09
2023-04-20T03:50:07.376Z,10.17
2023-04-20T03:51:09.500Z,10.18
2023-04-20T03:52:11.664Z,10.21
2023-04-20T03:53:13.548Z,10.25
2023-04-20T03:54:15.411Z,10.20
2023-04-20T03:55:17.502Z,10.28
2023-04-20T03:56:19.488Z,10.37
2023-04-20T03:57:21.354Z,10.38
2023-04-20T03:58:23.322Z,10.35
2023-04-20T03:59:25.175Z,10.37
2023-04-20T04:00:28.378Z,10.35
2023-04-20T04:01:30.645Z,10.34
2023-04-20T04:02:32.562Z,10.29
2023-04-20T04:03:35.937Z,10.34
2023-04-20T04:04:39.064Z,10.26
2023-04-20T04:05:41.311Z,10.29
2023-04-20T04:06:43.489Z,10.24
2023-04-20T04:07:46.607Z,10.18
2023-04-20T04:08:48.535Z,10.20
2023-04-20T04:09:50.424Z,10.16
2023-04-20T04:10:52.714Z,10.20
2023-04-20T04:11:54.603Z,10.14
2023-04-20T04:12:57.261Z,10.09
2023-04-20T04:13:59.242Z,10.17
2023-04-20T04:15:01.983Z,10.17
2023-04-20T04:16:04.467Z,10.14
2023-04-20T04:17:06.454Z,10.08
2023-04-20T04:18:09.023Z,10.07
2023-04-20T04:19:11.105Z,9.91
2023-04-20T04:20:13.320Z,9.97
2023-04-20T04:21:16.586Z,10.01
2023-04-20T04:22:18.567Z,10.16
2023-04-20T04:23:20.515Z,10.11
2023-04-20T04:24:22.370Z,10.03
2023-04-20T04:25:24.283Z,10.04
2023-04-20T04:26:27.461Z,10.10
2023-04-20T04:27:29.391Z,10.08
2023-04-20T04:28:31.347Z,10.02
2023-04-20T04:29:33.536Z,10.13
2023-04-20T04:30:35.492Z,10.13
2023-04-20T04:31:37.388Z,10.14
2023-04-20T04:32:39.949Z,10.03
2023-04-20T04:33:43.099Z,9.91
2023-04-20T04:34:44.949Z,10.00
2023-04-20T04:35:46.913Z,9.95
2023-04-20T04:36:49.730Z,9.91
2023-04-20T04:37:51.786Z,9.99
2023-04-20T04:38:53.734Z,9.99
2023-04-20T04:39:55.607Z,9.90
2023-04-20T04:40:59.807Z,9.98
2023-04-20T04:42:03.650Z,9.92
2023-04-20T04:43:05.512Z,9.98
2023-04-20T04:44:07.476Z,9.95
2023-04-20T04:45:11.251Z,10.01
2023-04-20T04:46:13.325Z,9.97
2023-04-20T04:47:15.390Z,10.01
2023-04-20T04:48:17.439Z,9.71
2023-04-20T04:49:19.791Z,9.72
2023-04-20T04:50:22.349Z,9.66
2023-04-20T04:51:24.496Z,9.59
2023-04-20T04:52:27.540Z,9.81
2023-04-20T04:53:29.901Z,9.58
2023-04-20T04:54:31.940Z,9.61
2023-04-20T04:55:33.813Z,9.51
2023-04-20T04:56:35.898Z,9.73
2023-04-20T04:57:38.061Z,9.51
2023-04-20T04:58:40.033Z,9.59
2023-04-20T04:59:41.987Z,9.52
2023-04-20T05:00:44.413Z,9.52
2023-04-20T05:01:46.532Z,9.43
2023-04-20T05:02:48.859Z,9.41
2023-04-20T05:03:51.040Z,9.61
2023-04-20T05:04:53.111Z,9.43
2023-04-20T05:05:55.339Z,9.42
2023-04-20T05:06:57.452Z,9.29
2023-04-20T05:07:59.489Z,9.40
2023-04-20T05:09:01.356Z,9.35
2023-04-20T05:10:04.962Z,9.35
2023-04-20T05:11:06.953Z,9.28
2023-04-20T05:12:09.167Z,9.51
2023-04-20T05:13:11.033Z,9.22
2023-04-20T05:14:13.660Z,9.04
2023-04-20T05:15:15.563Z,9.36
2023-04-20T05:16:17.978Z,9.36
2023-04-20T05:17:20.121Z,9.32
2023-04-20T05:18:22.173Z,9.29
2023-04-20T05:19:24.173Z,9.22
2023-04-20T05:20:26.249Z,9.25
2023-04-20T05:21:28.148Z,9.38
2023-04-20T05:22:30.016Z,9.16
2023-04-20T05:23:31.998Z,9.24
2023-04-20T05:24:33.869Z,9.25
2023-04-20T05:25:36.985Z,9.18
2023-04-20T05:26:39.136Z,9.12
2023-04-20T05:27:42.330Z,9.10
2023-04-20T05:28:44.728Z,9.13
2023-04-20T05:29:47.659Z,9.31
2023-04-20T05:30:49.746Z,9.08
2023-04-20T05:31:51.895Z,9.09
2023-04-20T05:32:54.243Z,9.07
2023-04-20T05:33:56.395Z,9.19
2023-04-20T05:34:58.365Z,8.93
2023-04-20T05:36:00.376Z,9.14
2023-04-20T05:37:04.058Z,8.98
2023-04-20T05:38:06.273Z,8.91
2023-04-20T05:39:08.379Z,8.78
2023-04-20T05:40:13.683Z,8.95
2023-04-20T05:41:15.838Z,8.92
2023-04-20T05:42:17.795Z,8.93
2023-04-20T05:43:19.683Z,9.06
2023-04-20T05:44:21.846Z,9.03
2023-04-20T05:45:23.869Z,8.97
2023-04-20T05:46:26.141Z,8.89
2023-04-20T05:47:28.351Z,8.94
2023-04-20T05:48:30.440Z,9.00
2023-04-20T05:49:32.571Z,8.93
2023-04-20T05:50:34.622Z,8.90
2023-04-20T05:51:36.648Z,9.03
2023-04-20T05:52:38.615Z,8.89
2023-04-20T05:53:41.650Z,8.92
2023-04-20T05:54:43.502Z,8.97
2023-04-20T05:55:45.346Z,9.09
2023-04-20T05:56:49.582Z,9.00
2023-04-20T05:57:52.046Z,9.09
2023-04-20T05:58:55.338Z,8.96
2023-04-20T05:59:57.235Z,9.03
2023-04-20T06:00:59.291Z,9.19
2023-04-20T06:02:01.342Z,9.05
2023-04-20T06:03:03.623Z,9.10
2023-04-20T06:04:05.958Z,9.08
2023-04-20T06:05:09.700Z,9.11
2023-04-20T06:06:12.127Z,9.13
2023-04-20T06:07:13.988Z,8.99
2023-04-20T06:08:16.244Z,9.08
2023-04-20T06:09:18.430Z,8.98
2023-04-20T06:10:23.472Z,9.06
2023-04-20T06:11:25.376Z,9.28
2023-04-20T06:12:28.132Z,9.27
2023-04-20T06:13:31.293Z,9.22
2023-04-20T06:14:35.279Z,9.44
2023-04-20T06:15:37.192Z,9.36
2023-04-20T06:16:40.935Z,9.23
2023-04-20T06:17:43.059Z,9.18
2023-04-20T06:18:45.296Z,9.18
2023-04-20T06:19:47.368Z,9.35
2023-04-20T06:20:49.546Z,9.46
2023-04-20T06:21:53.692Z,9.48
2023-04-20T06:22:56.748Z,9.45
2023-04-20T06:23:58.742Z,9.46
2023-04-20T06:25:01.808Z,9.54
2023-04-20T06:26:04.961Z,9.43
2023-04-20T06:27:07.510Z,9.41
2023-04-20T06:28:09.411Z,9.50
2023-04-20T06:29:11.274Z,9.63
2023-04-20T06:30:14.609Z,9.65
2023-04-20T06:31:18.336Z,9.60
2023-04-20T06:32:22.373Z,9.59
2023-04-20T06:33:24.548Z,9.66
2023-04-20T06:34:26.393Z,9.88
2023-04-20T06:35:28.796Z,9.70
2023-04-20T06:36:30.886Z,9.74
2023-04-20T06:37:34.920Z,9.64
2023-04-20T06:38:37.125Z,9.66
2023-04-20T06:39:39.156Z,9.64
2023-04-20T06:40:41.265Z,9.68
2023-04-20T06:41:43.610Z,9.77
2023-04-20T06:42:45.507Z,9.74
2023-04-20T06:43:47.521Z,9.76
2023-04-20T06:44:49.372Z,9.96
2023-04-20T06:45:51.251Z,9.91
2023-04-20T06:46:53.383Z,9.91
2023-04-20T06:47:55.394Z,9.95
2023-04-20T06:48:57.571Z,9.96
2023-04-20T06:50:05.099Z,9.83
2023-04-20T06:51:07.141Z,9.84
2023-04-20T06:52:09.522Z,9.92
2023-04-20T06:53:11.413Z,9.95
2023-04-20T06:54:13.326Z,9.92
2023-04-20T06:55:18.352Z,10.11
2023-04-20T06:56:21.825Z,10.06
2023-04-20T06:57:23.732Z,10.07
2023-04-20T06:58:26.139Z,10.07
2023-04-20T06:59:28.010Z,10.16
2023-04-20T07:00:30.989Z,9.96
2023-04-20T07:01:33.005Z,10.02
2023-04-20T07:02:46.917Z,10.03
2023-04-20T07:03:49.143Z,10.20
2023-04-20T07:04:51.395Z,10.07
2023-04-20T07:05:53.467Z,10.16
2023-04-20T07:06:55.566Z,10.21
2023-04-20T07:07:57.724Z,10.20
2023-04-20T07:09:00.325Z,10.38
2023-04-20T07:10:02.425Z,10.24
2023-04-20T07:11:04.661Z,10.10
2023-04-20T07:12:10.634Z,10.27
2023-04-20T07:13:12.794Z,10.41
2023-04-20T07:14:14.651Z,10.35
2023-04-20T07:15:18.792Z,10.39
2023-04-20T07:16:21.532Z,10.39
2023-04-20T07:17:28.109Z,10.33
2023-04-20T07:18:30.221Z,10.42
2023-04-20T07:19:32.245Z,10.43
2023-04-20T07:20:35.534Z,10.47
2023-04-20T07:21:37.422Z,10.44
2023-04-20T07:22:39.471Z,10.47
2023-04-20T07:23:43.305Z,10.36
2023-04-20T07:24:45.445Z,10.38
2023-04-20T07:25:47.444Z,10.41
2023-04-20T07:26:49.421Z,10.46
2023-04-20T07:27:51.432Z,10.57
2023-04-20T07:28:53.836Z,10.47
2023-04-20T07:29:58.406Z,10.48
2023-04-20T07:31:01.089Z,10.56
2023-04-20T07:32:03.860Z,10.52
2023-04-20T07:33:05.905Z,10.58
2023-04-20T07:34:07.974Z,10.51
2023-04-20T07:35:10.477Z,10.63
2023-04-20T07:36:12.791Z,10.61
2023-04-20T07:37:14.771Z,10.70
2023-04-20T07:38:17.453Z,10.72
2023-04-20T07:39:19.665Z,10.74
2023-04-20T07:40:23.286Z,10.56
2023-04-20T07:41:25.317Z,10.67
2023-04-20T07:42:28.446Z,10.75
2023-04-20T07:43:30.331Z,10.61
2023-04-20T07:44:32.226Z,10.62
2023-04-20T07:45:34.233Z,10.65
2023-04-20T07:46:36.352Z,10.63
2023-04-20T07:47:38.470Z,10.64
2023-04-20T07:48:40.602Z,10.67
2023-04-20T07:49:43.515Z,10.67
2023-04-20T07:50:46.237Z,10.67
2023-04-20T07:51:48.382Z,10.66
2023-04-20T07:52:51.510Z,10.59
2023-04-20T07:53:53.533Z,10.60
2023-04-20T07:54:56.642Z,10.31
2023-04-20T07:55:58.631Z,10.34
2023-04-20T07:57:01.723Z,10.35
2023-04-20T07:58:03.696Z,10.01
2023-04-20T07:59:05.591Z,10.16
2023-04-20T08:00:11.750Z,10.20
2023-04-20T08:01:14.880Z,10.21
2023-04-20T08:02:17.007Z,10.02
2023-04-20T08:03:20.343Z,10.05
2023-04-20T08:04:22.876Z,10.10
2023-04-20T08:05:25.342Z,9.81
2023-04-20T08:06:28.629Z,9.88
2023-04-20T08:07:30.729Z,9.91
2023-04-20T08:08:32.623Z,9.93
2023-04-20T08:09:34.801Z,9.79
2023-04-20T08:10:36.821Z,9.82
2023-04-20T08:11:38.727Z,9.77
2023-04-20T08:12:41.705Z,9.73
2023-04-20T08:13:44.295Z,9.70
2023-04-20T08:14:46.143Z,9.90
2023-04-20T08:15:48.033Z,9.59
2023-04-20T08:16:50.162Z,9.59
2023-04-20T08:17:52.088Z,9.51
2023-04-20T08:18:53.976Z,9.48
2023-04-20T08:19:55.858Z,9.55
2023-04-20T08:20:58.082Z,9.51
2023-04-20T08:22:00.698Z,9.65
2023-04-20T08:23:03.646Z,9.55
2023-04-20T08:24:07.558Z,9.56
2023-04-20T08:25:09.501Z,9.73
2023-04-20T08:26:16.402Z,9.61
2023-04-20T08:27:18.417Z,9.47
2023-04-20T08:28:32.869Z,9.64
2023-04-20T08:29:25.450Z,9.36
2023-04-20T08:30:27.670Z,9.53
2023-04-20T08:31:29.583Z,9.52
2023-04-20T08:32:31.647Z,9.41
2023-04-20T08:33:33.719Z,9.50
2023-04-20T08:34:35.821Z,9.53
2023-04-20T08:35:38.358Z,9.69
2023-04-20T08:36:42.094Z,9.47
2023-04-20T08:37:43.984Z,9.34
2023-04-20T08:38:46.165Z,9.51
2023-04-20T08:39:48.081Z,9.59
2023-04-20T08:40:50.103Z,9.58
2023-04-20T08:41:52.460Z,9.55
2023-04-20T08:42:54.408Z,9.53
2023-04-20T08:43:56.374Z,9.33
2023-04-20T08:45:00.285Z,9.48
2023-04-20T08:46:03.345Z,9.53
2023-04-20T08:47:05.931Z,9.53
2023-04-20T08:48:10.485Z,9.55
2023-04-20T08:49:14.761Z,9.55
2023-04-20T08:50:19.299Z,9.56
2023-04-20T08:51:23.379Z,9.54
2023-04-20T08:52:25.314Z,9.67
2023-04-20T08:53:27.363Z,9.72
2023-04-20T08:54:30.482Z,9.62
2023-04-20T08:55:32.336Z,9.58
2023-04-20T08:56:36.359Z,9.62
2023-04-20T08:57:38.389Z,9.72
2023-04-20T08:58:40.282Z,9.52
2023-04-20T08:59:42.180Z,9.57
2023-04-20T09:00:48.478Z,9.59
2023-04-20T09:01:50.830Z,9.54
2023-04-20T09:02:56.042Z,9.59
2023-04-20T09:03:59.484Z,9.59
2023-04-20T09:05:04.139Z,9.68
2023-04-20T09:06:16.048Z,9.55
2023-04-20T09:07:19.983Z,9.56
2023-04-20T09:08:40.056Z,9.47
2023-04-20T09:09:53.411Z,9.57
2023-04-20T09:10:55.452Z,9.54
2023-04-20T09:12:07.240Z,9.66
2023-04-20T09:13:21.828Z,9.75
2023-04-20T09:14:23.881Z,9.65
2023-04-20T09:15:31.321Z,9.58
2023-04-20T09:16:35.178Z,9.58
2023-04-20T09:17:39.294Z,9.64
2023-04-20T09:18:45.053Z,9.73
2023-04-20T09:19:52.384Z,9.67
2023-04-20T09:20:54.523Z,9.76
2023-04-20T09:21:58.846Z,9.81
2023-04-20T09:23:16.212Z,9.73
2023-04-20T09:24:23.461Z,9.79
2023-04-20T09:25:26.147Z,9.88
2023-04-20T09:26:33.794Z,9.74
2023-04-20T09:27:36.313Z,9.74
2023-04-20T09:28:38.459Z,9.80
2023-04-20T09:29:40.961Z,9.88
2023-04-20T09:30:47.454Z,9.91
2023-04-20T09:31:50.061Z,9.83
2023-04-20T09:33:02.658Z,9.91
2023-04-20T09:34:05.977Z,9.84
2023-04-20T09:35:08.741Z,9.96
2023-04-20T09:36:11.850Z,9.89
2023-04-20T09:37:17.099Z,9.94
2023-04-20T09:38:22.763Z,9.96
2023-04-20T09:39:24.690Z,10.05
2023-04-20T09:40:27.581Z,10.13
2023-04-20T09:41:31.559Z,10.06
2023-04-20T09:42:37.901Z,10.16
2023-04-20T09:43:41.597Z,10.27
2023-04-20T09:44:45.781Z,10.32
2023-04-20T09:45:48.213Z,10.33
2023-04-20T09:46:51.877Z,10.35
2023-04-20T09:47:54.627Z,10.32
2023-04-20T09:49:02.183Z,10.40
2023-04-20T09:50:19.480Z,10.45
2023-04-20T09:51:12.834Z,10.44
2023-04-20T09:53:33.797Z,10.49
2023-04-20T09:54:37.442Z,10.57
2023-04-20T09:55:40.401Z,10.63
2023-04-20T09:56:42.998Z,10.64
2023-04-20T09:57:45.060Z,10.63
2023-04-20T09:58:47.366Z,10.47
2023-04-20T09:59:52.706Z,10.68
2023-04-20T10:00:55.626Z,10.56
2023-04-20T10:01:58.207Z,10.50
2023-04-20T10:03:00.602Z,10.47
2023-04-20T10:04:10.396Z,10.48
2023-04-20T10:05:13.220Z,10.46
2023-04-20T10:06:24.193Z,10.49
2023-04-20T10:07:31.061Z,10.50
2023-04-20T10:08:40.718Z,10.53
2023-04-20T10:09:42.732Z,10.44
2023-04-20T10:10:47.624Z,10.45
2023-04-20T10:11:53.979Z,10.49
2023-04-20T10:12:55.877Z,10.51
2023-04-20T10:13:59.415Z,10.41
2023-04-20T10:15:01.474Z,10.42
2023-04-20T10:16:03.952Z,10.48
2023-04-20T10:17:09.548Z,10.57
2023-04-20T10:19:41.801Z,10.68
2023-04-20T10:20:44.034Z,10.64
2023-04-20T10:21:48.406Z,10.84
2023-04-20T10:22:58.028Z,10.80
2023-04-20T10:24:01.346Z,10.86
2023-04-20T10:25:08.744Z,10.85
2023-04-20T10:26:11.292Z,10.80
2023-04-20T10:27:20.656Z,10.89
2023-04-20T10:28:22.771Z,10.84
2023-04-20T10:29:26.379Z,10.87
2023-04-20T10:30:28.927Z,10.90
2023-04-20T10:31:38.707Z,10.82
2023-04-20T10:32:40.787Z,10.71
2023-04-20T10:33:54.049Z,10.73
2023-04-20T10:35:12.786Z,10.74
2023-04-20T10:36:24.307Z,10.75
2023-04-20T10:37:27.121Z,10.78
2023-04-20T10:38:35.014Z,10.59
2023-04-20T10:39:45.701Z,10.69
2023-04-20T10:40:47.769Z,10.70
2023-04-20T10:41:55.320Z,10.64
2023-04-20T10:42:57.456Z,10.68
2023-04-20T10:44:09.684Z,10.66
2023-04-20T10:45:12.627Z,10.71
2023-04-20T10:46:23.563Z,10.75
2023-04-20T10:47:30.990Z,10.66
2023-04-20T10:48:34.141Z,10.59
2023-04-20T10:49:36.015Z,10.60
2023-04-20T10:50:38.503Z,10.58
2023-04-20T10:51:51.689Z,10.56
2023-04-20T10:52:53.936Z,10.51
2023-04-20T10:54:02.016Z,10.44
2023-04-20T10:55:06.234Z,10.42
2023-04-20T10:56:08.476Z,10.36
2023-04-20T10:57:14.119Z,10.58
2023-04-20T10:58:24.119Z,10.60
2023-04-20T10:59:28.541Z,10.53
2023-04-20T11:00:30.657Z,10.51
2023-04-20T11:01:32.880Z,10.55
2023-04-20T11:02:35.078Z,10.56
2023-04-20T11:03:41.215Z,10.62
2023-04-20T11:04:43.372Z,10.62
2023-04-20T11:05:49.144Z,10.68
2023-04-20T11:06:51.184Z,10.69
2023-04-20T11:07:56.041Z,10.76
2023-04-20T11:08:58.130Z,10.75
2023-04-20T11:10:00.012Z,10.72
2023-04-20T11:11:02.058Z,10.68
2023-04-20T11:12:10.184Z,10.68
2023-04-20T11:13:22.706Z,10.57
2023-04-20T11:14:25.810Z,10.63
2023-04-20T11:15:34.210Z,10.78
2023-04-20T11:16:49.572Z,10.71
2023-04-20T11:17:42.157Z,10.73
2023-04-20T11:18:52.813Z,10.73
2023-04-20T11:19:58.869Z,10.75
2023-04-20T11:21:00.887Z,10.73
2023-04-20T11:22:04.765Z,10.73
2023-04-20T11:23:06.720Z,10.81
2023-04-20T11:24:23.097Z,10.78
2023-04-20T11:25:25.583Z,10.86
2023-04-20T11:26:36.539Z,10.74
2023-04-20T11:27:39.109Z,10.84
2023-04-20T11:28:56.030Z,10.83
2023-04-20T11:29:58.076Z,10.71
2023-04-20T11:31:00.423Z,10.79
2023-04-20T11:32:05.181Z,10.80
2023-04-20T11:33:08.185Z,10.82
2023-04-20T11:34:18.328Z,10.96
2023-04-20T11:35:20.604Z,10.87
2023-04-20T11:36:23.921Z,10.99
2023-04-20T11:37:27.245Z,11.00
2023-04-20T11:38:31.372Z,11.03
2023-04-20T11:39:33.980Z,11.00
2023-04-20T11:40:36.301Z,11.12
2023-04-20T11:41:38.343Z,11.15
2023-04-20T11:42:40.380Z,11.06
2023-04-20T11:43:42.501Z,11.06
2023-04-20T11:44:45.924Z,11.08
2023-04-20T11:45:47.874Z,11.15
2023-04-20T11:46:50.021Z,11.18
2023-04-20T11:47:51.900Z,11.25
2023-04-20T11:48:53.942Z,11.24
2023-04-20T11:49:55.841Z,11.26
2023-04-20T11:50:58.958Z,11.21
2023-04-20T11:52:00.955Z,11.24
2023-04-20T11:53:02.814Z,11.14
2023-04-20T11:54:04.813Z,11.13
2023-04-20T11:55:08.180Z,11.20
2023-04-20T11:56:12.047Z,11.15
2023-04-20T11:57:13.892Z,11.21
2023-04-20T11:58:15.823Z,11.14
2023-04-20T11:59:20.791Z,11.24
2023-04-20T12:00:23.566Z,11.16
2023-04-20T12:01:25.567Z,11.20
2023-04-20T12:02:27.495Z,11.21
2023-04-20T12:03:29.735Z,11.20
2023-04-20T12:04:32.437Z,11.12
2023-04-20T12:05:34.610Z,11.17
2023-04-20T12:06:37.830Z,11.18
2023-04-20T12:07:39.694Z,11.21
2023-04-20T12:08:41.535Z,11.21
2023-04-20T12:09:43.431Z,11.23
2023-04-20T12:10:45.606Z,11.19
2023-04-20T12:11:47.676Z,11.41
2023-04-20T12:12:49.539Z,11.42
2023-04-20T12:13:51.934Z,11.45
2023-04-20T12:14:55.032Z,11.48
2023-04-20T12:15:57.072Z,11.39
2023-04-20T12:17:06.067Z,11.33
2023-04-20T12:18:08.328Z,11.42
2023-04-20T12:19:10.395Z,11.44
2023-04-20T12:20:13.187Z,11.53
2023-04-20T12:21:15.264Z,11.58
2023-04-20T12:22:17.240Z,11.60
2023-04-20T12:23:19.112Z,11.53
2023-04-20T12:24:21.180Z,11.62
2023-04-20T12:25:23.046Z,11.59
2023-04-20T12:26:34.823Z,11.59
2023-04-20T12:27:29.100Z,11.60
2023-04-20T12:28:32.051Z,11.62
2023-04-20T12:29:33.990Z,11.63
2023-04-20T12:30:36.111Z,11.62
2023-04-20T12:31:38.034Z,11.57
2023-04-20T12:32:40.287Z,11.64
2023-04-20T12:33:42.492Z,11.65
2023-04-20T12:34:44.705Z,11.63
2023-04-20T12:35:46.596Z,11.59
2023-04-20T12:36:48.649Z,11.47
2023-04-20T12:37:50.520Z,11.60
2023-04-20T12:38:52.680Z,11.60
2023-04-20T12:39:54.661Z,11.63
2023-04-20T12:40:57.208Z,11.64
2023-04-20T12:41:59.385Z,11.50
2023-04-20T12:43:01.247Z,11.55
2023-04-20T12:44:06.146Z,11.64
2023-04-20T12:45:08.089Z,11.66
2023-04-20T12:46:10.297Z,11.63
2023-04-20T12:47:12.343Z,11.54
2023-04-20T12:48:14.634Z,11.62
2023-04-20T12:49:16.802Z,11.57
2023-04-20T12:50:19.482Z,11.48
2023-04-20T12:51:21.468Z,11.53
2023-04-20T12:52:23.568Z,11.55
2023-04-20T12:53:25.472Z,11.54
2023-04-20T12:54:27.474Z,11.53
2023-04-20T12:55:29.374Z,11.57
2023-04-20T12:56:31.441Z,11.49
2023-04-20T12:57:33.527Z,11.50
2023-04-20T12:58:36.747Z,11.49
2023-04-20T12:59:38.640Z,11.54
2023-04-20T13:00:42.163Z,11.49
2023-04-20T13:01:44.162Z,11.47
2023-04-20T13:02:46.255Z,11.43
2023-04-20T13:03:50.697Z,11.21
2023-04-20T13:04:52.956Z,11.24
2023-04-20T13:05:54.939Z,11.08
2023-04-20T13:06:57.133Z,11.01
2023-04-20T13:07:59.257Z,10.85
2023-04-20T13:09:02.645Z,10.88
2023-04-20T13:10:05.937Z,10.93
2023-04-20T13:11:10.552Z,10.70
2023-04-20T13:12:12.867Z,10.75
2023-04-20T13:13:14.915Z,10.83
2023-04-20T13:14:17.696Z,10.84
2023-04-20T13:15:31.983Z,10.86
2023-04-20T13:16:26.272Z,10.91
2023-04-20T13:17:28.926Z,10.89
2023-04-20T13:18:31.090Z,10.95
2023-04-20T13:19:34.708Z,11.00
2023-04-20T13:20:36.931Z,11.01
2023-04-20T13:21:38.903Z,10.92
2023-04-20T13:22:46.983Z,11.03
2023-04-20T13:23:44.668Z,11.05
2023-04-20T13:24:46.696Z,11.10
2023-04-20T13:25:48.654Z,11.12
2023-04-20T13:26:54.135Z,11.14
2023-04-20T13:27:57.228Z,11.19
2023-04-20T13:29:01.508Z,11.24
2023-04-20T13:30:05.110Z,11.23
2023-04-20T13:31:07.467Z,11.24
2023-04-20T13:32:11.036Z,11.23
2023-04-20T13:33:13.106Z,11.28
2023-04-20T13:34:15.648Z,11.34
2023-04-20T13:35:19.305Z,11.34
2023-04-20T13:36:23.523Z,11.37
2023-04-20T13:37:25.685Z,11.39
2023-04-20T13:38:27.558Z,11.37
2023-04-20T13:39:30.570Z,11.42
2023-04-20T13:40:32.933Z,11.37
2023-04-20T13:41:35.013Z,11.44
2023-04-20T13:42:38.449Z,11.33
2023-04-20T13:43:42.037Z,11.27
2023-04-20T13:44:45.183Z,11.39